Voe, United Kingdom
Current Conditions -  °F | °C
As of 1:50 PM on Saturday 25 Oct 2014 (Local Time) from EGPM Reporting Station
Scattered Clouds Scattered Clouds  
Wind Chill: 52°   Ceiling: Unl
Heat Index: 52°   Visibility: 6mi
Dew Point: 46°   Wind: 28mph
Humidity: 82%   Direction: 210°SSW
Pressure: 29.29"   Gusts: NA
Location:  60.35°N, 1.27°W
Report Text: EGPM 251250Z AUTO 21024KT 9999 FEW023/// SCT030/// 11/08 Q0992
Loading
Personal Weather Stations






























Interactive Weather Map
Tropical Storm Tracking
New forecast layout! Learn more

10-Day Weather Forecast

Advertisements
Track Severe Weather on mobile